createdAt,value
2018-02-08T00:01:36.078Z,-6.80
2018-02-08T00:04:03.607Z,-6.80
2018-02-08T00:06:31.300Z,-6.90
2018-02-08T00:08:58.950Z,-7.00
2018-02-08T00:11:27.028Z,-7.10
2018-02-08T00:13:54.842Z,-7.00
2018-02-08T00:16:23.371Z,-6.90
2018-02-08T00:18:52.168Z,-6.90
2018-02-08T00:21:20.809Z,-6.90
2018-02-08T00:23:51.340Z,-6.90
2018-02-08T00:26:20.084Z,-6.90
2018-02-08T00:28:50.356Z,-6.80
2018-02-08T00:31:18.217Z,-6.80
2018-02-08T00:33:45.986Z,-6.80
2018-02-08T00:36:13.503Z,-6.70
2018-02-08T00:38:41.804Z,-6.80
2018-02-08T00:41:09.332Z,-6.80
2018-02-08T00:43:36.876Z,-6.80
2018-02-08T00:46:04.944Z,-6.90
2018-02-08T00:48:32.483Z,-7.00
2018-02-08T00:51:00.131Z,-7.00
2018-02-08T00:53:28.373Z,-7.00
2018-02-08T00:55:56.258Z,-7.00
2018-02-08T00:58:25.070Z,-7.00
2018-02-08T01:00:53.212Z,-7.10
2018-02-08T01:03:24.822Z,-7.00
2018-02-08T01:05:53.505Z,-7.00
2018-02-08T01:08:22.384Z,-7.00
2018-02-08T01:10:50.345Z,-7.00
2018-02-08T01:13:17.935Z,-7.00
2018-02-08T01:15:45.492Z,-7.00
2018-02-08T01:18:13.736Z,-7.00
2018-02-08T01:20:41.288Z,-7.00
2018-02-08T01:23:08.812Z,-7.00
2018-02-08T01:25:36.390Z,-7.00
2018-02-08T01:28:03.909Z,-7.00
2018-02-08T01:30:31.465Z,-7.00
2018-02-08T01:32:59.651Z,-7.00
2018-02-08T01:35:27.759Z,-7.00
2018-02-08T01:37:55.368Z,-7.10
2018-02-08T01:40:24.128Z,-7.10
2018-02-08T01:42:52.489Z,-7.10
2018-02-08T01:45:21.402Z,-7.20
2018-02-08T01:47:51.325Z,-7.10
2018-02-08T01:50:21.264Z,-7.00
2018-02-08T01:52:50.588Z,-6.90
2018-02-08T01:55:19.738Z,-6.90
2018-02-08T01:57:51.191Z,-6.80
2018-02-08T02:00:19.789Z,-6.80
2018-02-08T02:02:47.443Z,-6.80
2018-02-08T02:05:14.983Z,-6.80
2018-02-08T02:07:42.521Z,-6.80
2018-02-08T02:10:10.809Z,-6.80
2018-02-08T02:12:39.116Z,-6.80
2018-02-08T02:15:06.641Z,-6.80
2018-02-08T02:17:35.636Z,-7.00
2018-02-08T02:20:03.929Z,-7.00
2018-02-08T02:22:31.472Z,-7.10
2018-02-08T02:25:00.188Z,-7.00
2018-02-08T02:27:28.603Z,-7.00
2018-02-08T02:29:57.600Z,-6.90
2018-02-08T02:32:27.125Z,-6.90
2018-02-08T02:34:55.960Z,-6.80
2018-02-08T02:37:24.539Z,-6.80
2018-02-08T02:39:53.027Z,-6.70
2018-02-08T02:42:21.557Z,-6.70
2018-02-08T02:44:50.810Z,-6.70
2018-02-08T02:47:19.187Z,-6.70
2018-02-08T02:49:47.581Z,-6.60
2018-02-08T02:52:16.197Z,-6.60
2018-02-08T02:54:43.744Z,-6.60
2018-02-08T02:57:11.276Z,-6.60
2018-02-08T02:59:38.809Z,-6.70
2018-02-08T03:02:06.340Z,-6.70
2018-02-08T03:04:33.884Z,-6.70
2018-02-08T03:07:04.068Z,-5.30
2018-02-08T03:09:32.118Z,-6.80
2018-02-08T03:12:01.119Z,-7.00
2018-02-08T03:14:29.742Z,-7.00
2018-02-08T03:16:57.916Z,-7.00
2018-02-08T03:19:26.582Z,-7.00
2018-02-08T03:21:55.579Z,-7.00
2018-02-08T03:24:25.504Z,-7.10
2018-02-08T03:26:53.747Z,-7.10
2018-02-08T03:29:22.867Z,-7.10
2018-02-08T03:31:51.871Z,-7.10
2018-02-08T03:34:21.301Z,-7.10
2018-02-08T03:36:52.018Z,-7.20
2018-02-08T03:39:21.300Z,-7.30
2018-02-08T03:41:51.274Z,-7.30
2018-02-08T03:44:20.206Z,-7.30
2018-02-08T03:46:48.073Z,-7.40
2018-02-08T03:49:15.696Z,-7.30
2018-02-08T03:51:43.235Z,-7.40
2018-02-08T03:54:10.864Z,-7.30
2018-02-08T03:56:38.408Z,-7.30
2018-02-08T03:59:05.934Z,-7.50
2018-02-08T04:01:33.489Z,-7.60
2018-02-08T04:04:01.017Z,-7.60
2018-02-08T04:06:28.918Z,-7.50
2018-02-08T04:08:57.141Z,-7.50
2018-02-08T04:11:25.084Z,-7.60
2018-02-08T04:13:53.281Z,-7.60
2018-02-08T04:16:23.192Z,-7.50
2018-02-08T04:18:51.975Z,-7.60
2018-02-08T04:21:21.330Z,-7.40
2018-02-08T04:23:51.168Z,-7.40
2018-02-08T04:26:21.004Z,-7.50
2018-02-08T04:28:49.110Z,-7.50
2018-02-08T04:31:17.670Z,-7.50
2018-02-08T04:33:46.576Z,-7.50
2018-02-08T04:36:14.209Z,-7.50
2018-02-08T04:38:53.871Z,-7.50
2018-02-08T04:41:33.286Z,-7.50
2018-02-08T04:44:23.175Z,-7.50
2018-02-08T04:47:04.805Z,-7.50
2018-02-08T04:49:32.378Z,-7.50
2018-02-08T04:52:00.245Z,-7.50
2018-02-08T04:54:28.441Z,-7.50
2018-02-08T04:56:57.018Z,-7.40
2018-02-08T04:59:25.305Z,-7.40
2018-02-08T05:01:54.413Z,-7.30
2018-02-08T05:04:22.876Z,-7.30
2018-02-08T05:06:52.459Z,-7.40
2018-02-08T05:09:23.624Z,-7.40
2018-02-08T05:11:52.796Z,-7.40
2018-02-08T05:14:22.216Z,-7.40
2018-02-08T05:16:52.810Z,-7.50
2018-02-08T05:19:23.447Z,-7.60
2018-02-08T05:21:52.987Z,-7.50
2018-02-08T05:24:22.458Z,-7.50
2018-02-08T05:26:51.753Z,-7.50
2018-02-08T05:29:21.077Z,-7.60
2018-02-08T05:31:50.497Z,-7.40
2018-02-08T05:34:20.814Z,-7.40
2018-02-08T05:36:50.290Z,-7.40
2018-02-08T05:39:18.310Z,-7.50
2018-02-08T05:41:46.740Z,-7.50
2018-02-08T05:44:14.797Z,-7.50
2018-02-08T05:46:42.343Z,-7.40
2018-02-08T05:49:10.796Z,-7.40
2018-02-08T05:51:38.339Z,-7.40
2018-02-08T05:54:05.888Z,-7.40
2018-02-08T05:56:33.418Z,-7.40
2018-02-08T05:59:01.913Z,-7.40
2018-02-08T06:01:29.865Z,-7.50
2018-02-08T06:03:57.750Z,-7.40
2018-02-08T06:06:25.823Z,-7.40
2018-02-08T06:08:53.590Z,-7.40
2018-02-08T06:11:21.704Z,-7.30
2018-02-08T06:13:51.884Z,-7.30
2018-02-08T06:16:21.083Z,-7.30
2018-02-08T06:18:50.181Z,-7.30
2018-02-08T06:21:19.566Z,-7.30
2018-02-08T06:23:49.323Z,-7.30
2018-02-08T06:26:16.958Z,-7.30
2018-02-08T06:28:44.629Z,-7.30
2018-02-08T06:31:12.165Z,-7.30
2018-02-08T06:33:40.167Z,-7.20
2018-02-08T06:36:07.690Z,-7.20
2018-02-08T06:38:35.212Z,-7.10
2018-02-08T06:41:02.773Z,-7.10
2018-02-08T06:43:30.786Z,-7.10
2018-02-08T06:45:58.563Z,-7.00
2018-02-08T06:48:26.184Z,-7.00
2018-02-08T06:50:54.571Z,-6.80
2018-02-08T06:53:22.370Z,-6.80
2018-02-08T06:55:50.649Z,-6.80
2018-02-08T06:58:19.639Z,-6.80
2018-02-08T07:00:47.234Z,-6.90
2018-02-08T07:03:14.774Z,-6.80
2018-02-08T07:05:42.422Z,-6.80
2018-02-08T07:08:09.964Z,-6.80
2018-02-08T07:10:37.509Z,-6.70
2018-02-08T07:13:05.031Z,-6.70
2018-02-08T07:15:32.889Z,-6.60
2018-02-08T07:18:00.420Z,-6.60
2018-02-08T07:20:27.981Z,-6.70
2018-02-08T07:22:55.575Z,-6.60
2018-02-08T07:25:24.201Z,-6.60
2018-02-08T07:27:52.352Z,-6.60
2018-02-08T07:30:20.793Z,-6.50
2018-02-08T07:32:48.380Z,-6.30
2018-02-08T07:35:15.971Z,-6.20
2018-02-08T07:37:44.278Z,-5.90
2018-02-08T07:40:11.805Z,-5.90
2018-02-08T07:42:39.374Z,-5.80
2018-02-08T07:45:08.155Z,-5.60
2018-02-08T07:47:36.494Z,-5.40
2018-02-08T07:50:04.020Z,-5.50
2018-02-08T07:52:31.613Z,-5.30
2018-02-08T07:54:59.177Z,-5.20
2018-02-08T07:57:27.002Z,-5.00
2018-02-08T07:59:54.713Z,-4.80
2018-02-08T08:02:23.164Z,-4.60
2018-02-08T08:04:50.836Z,-4.50
2018-02-08T08:07:18.593Z,-4.40
2018-02-08T08:09:47.186Z,-4.20
2018-02-08T08:12:14.717Z,-4.20
2018-02-08T08:14:42.332Z,-4.20
2018-02-08T08:17:09.870Z,-4.10
2018-02-08T08:19:37.430Z,-3.90
2018-02-08T08:22:04.965Z,-3.90
2018-02-08T08:24:32.517Z,-3.70
2018-02-08T08:27:00.610Z,-3.60
2018-02-08T08:29:28.157Z,-3.60
2018-02-08T08:31:55.932Z,-3.40
2018-02-08T08:34:23.803Z,-3.30
2018-02-08T08:36:51.452Z,-3.20
2018-02-08T08:39:19.436Z,-3.00
2018-02-08T08:41:47.401Z,-2.90
2018-02-08T08:44:16.616Z,-2.90
2018-02-08T08:46:44.328Z,-2.90
2018-02-08T08:49:13.153Z,-2.90
2018-02-08T08:51:42.163Z,-2.70
2018-02-08T08:54:09.702Z,-2.70
2018-02-08T08:56:37.588Z,-2.70
2018-02-08T08:59:05.120Z,-2.70
2018-02-08T09:01:32.697Z,-2.70
2018-02-08T09:04:00.234Z,-2.70
2018-02-08T09:06:28.174Z,-2.70
2018-02-08T09:08:57.012Z,-3.00
2018-02-08T09:11:25.504Z,-3.00
2018-02-08T09:13:53.612Z,-3.00
2018-02-08T09:16:22.523Z,-3.20
2018-02-08T09:18:50.299Z,-3.20
2018-02-08T09:21:18.626Z,-3.30
2018-02-08T09:23:46.397Z,-3.30
2018-02-08T09:26:14.125Z,-3.30
2018-02-08T09:28:42.209Z,-3.10
2018-02-08T09:31:09.765Z,-3.00
2018-02-08T09:33:37.328Z,-2.90
2018-02-08T09:36:04.874Z,-2.90
2018-02-08T09:38:32.419Z,-2.80
2018-02-08T09:41:00.763Z,-2.60
2018-02-08T09:43:28.504Z,-2.70
2018-02-08T09:45:56.216Z,-2.50
2018-02-08T09:48:24.938Z,-2.40
2018-02-08T09:50:52.560Z,-2.40
2018-02-08T09:53:21.135Z,-2.20
2018-02-08T09:55:50.351Z,-2.00
2018-02-08T09:58:18.050Z,-2.10
2018-02-08T10:00:45.622Z,-1.90
2018-02-08T10:03:13.193Z,-1.80
2018-02-08T10:05:40.724Z,-1.70
2018-02-08T10:08:08.261Z,-1.70
2018-02-08T10:10:35.824Z,-1.60
2018-02-08T10:13:03.353Z,-1.70
2018-02-08T10:15:30.933Z,-1.80
2018-02-08T10:17:59.446Z,-1.60
2018-02-08T10:20:27.149Z,-1.60
2018-02-08T10:22:55.045Z,-1.50
2018-02-08T10:25:23.048Z,-1.40
2018-02-08T10:27:51.324Z,-1.30
2018-02-08T10:30:19.220Z,-1.30
2018-02-08T10:32:46.789Z,-1.20
2018-02-08T10:35:14.338Z,-1.00
2018-02-08T10:37:41.901Z,-1.00
2018-02-08T10:40:09.449Z,-1.00
2018-02-08T10:42:36.978Z,-0.90
2018-02-08T10:45:04.514Z,-0.70
2018-02-08T10:47:33.067Z,-0.50
2018-02-08T10:50:00.631Z,-0.50
2018-02-08T10:52:28.375Z,-0.40
2018-02-08T10:54:56.331Z,-0.40
2018-02-08T10:57:23.920Z,-0.30
2018-02-08T10:59:51.981Z,0.10
2018-02-08T11:02:20.373Z,0.10
2018-02-08T11:04:48.208Z,0.60
2018-02-08T11:07:15.743Z,1.20
2018-02-08T11:09:44.461Z,1.60
2018-02-08T11:12:11.990Z,1.60
2018-02-08T11:14:39.517Z,1.70
2018-02-08T11:17:07.057Z,1.90
2018-02-08T11:19:34.573Z,2.10
2018-02-08T11:22:02.111Z,1.90
2018-02-08T11:24:30.018Z,2.10
2018-02-08T11:26:57.681Z,2.20
2018-02-08T11:29:25.547Z,2.20
2018-02-08T11:31:53.517Z,2.30
2018-02-08T11:34:21.487Z,2.50
2018-02-08T11:36:49.968Z,2.40
2018-02-08T11:39:17.892Z,2.50
2018-02-08T11:41:45.609Z,2.70
2018-02-08T11:44:13.141Z,2.70
2018-02-08T11:46:40.692Z,2.80
2018-02-08T11:49:08.982Z,2.90
2018-02-08T11:51:36.548Z,2.90
2018-02-08T11:54:04.090Z,2.90
2018-02-08T11:56:32.701Z,3.30
2018-02-08T11:59:00.466Z,3.30
2018-02-08T12:01:28.056Z,3.10
2018-02-08T12:03:55.796Z,3.30
2018-02-08T12:06:24.376Z,3.10
2018-02-08T12:08:53.405Z,3.00
2018-02-08T12:11:20.928Z,3.00
2018-02-08T12:13:48.448Z,3.00
2018-02-08T12:16:16.803Z,3.20
2018-02-08T12:18:44.429Z,3.20
2018-02-08T12:21:11.991Z,3.10
2018-02-08T12:23:40.053Z,3.00
2018-02-08T12:26:07.957Z,2.70
2018-02-08T12:28:36.066Z,2.70
2018-02-08T12:31:05.300Z,2.70
2018-02-08T12:33:33.280Z,2.60
2018-02-08T12:36:01.536Z,2.40
2018-02-08T12:38:29.509Z,2.40
2018-02-08T12:40:57.487Z,2.60
2018-02-08T12:43:26.610Z,2.40
2018-02-08T12:45:55.877Z,2.70
2018-02-08T12:48:24.218Z,3.10
2018-02-08T12:50:51.757Z,3.10
2018-02-08T12:53:19.311Z,3.30
2018-02-08T12:55:47.513Z,3.10
2018-02-08T12:58:15.809Z,3.10
2018-02-08T13:00:43.715Z,3.10
2018-02-08T13:03:11.251Z,3.10
2018-02-08T13:05:39.145Z,3.10
2018-02-08T13:08:07.316Z,3.10
2018-02-08T13:10:35.702Z,3.30
2018-02-08T13:13:03.348Z,3.30
2018-02-08T13:15:30.934Z,3.20
2018-02-08T13:17:58.761Z,2.90
2018-02-08T13:20:27.254Z,2.70
2018-02-08T13:22:55.126Z,2.70
2018-02-08T13:25:23.914Z,2.90
2018-02-08T13:27:52.297Z,3.00
2018-02-08T13:30:21.293Z,3.10
2018-02-08T13:32:49.668Z,3.00
2018-02-08T13:35:17.732Z,3.00
2018-02-08T13:37:46.434Z,2.80
2018-02-08T13:40:17.919Z,2.80
2018-02-08T13:42:48.397Z,3.00
2018-02-08T13:45:18.000Z,3.10
2018-02-08T13:51:00.748Z,3.00
2018-02-08T13:53:33.925Z,3.00
2018-02-08T13:56:07.116Z,2.70
2018-02-08T13:58:54.965Z,2.80
2018-02-08T14:01:22.716Z,2.60
2018-02-08T14:03:50.507Z,2.40
2018-02-08T14:06:20.414Z,2.50
2018-02-08T14:08:48.741Z,2.50
2018-02-08T14:11:16.752Z,2.70
2018-02-08T14:13:45.959Z,2.60
2018-02-08T14:16:14.439Z,2.60
2018-02-08T14:18:42.056Z,2.70
2018-02-08T14:21:10.726Z,2.50
2018-02-08T14:23:38.448Z,2.50
2018-02-08T14:26:06.068Z,2.90
2018-02-08T14:28:33.621Z,2.80
2018-02-08T14:31:01.419Z,2.60
2018-02-08T14:33:29.506Z,2.40
2018-02-08T14:35:57.227Z,2.10
2018-02-08T14:38:26.268Z,2.20
2018-02-08T14:40:55.162Z,2.20
2018-02-08T14:43:23.133Z,2.20
2018-02-08T14:45:51.008Z,2.20
2018-02-08T14:48:19.121Z,2.10
2018-02-08T14:50:46.740Z,2.20
2018-02-08T14:53:14.260Z,2.20
2018-02-08T14:55:42.797Z,2.20
2018-02-08T14:58:10.371Z,2.20
2018-02-08T15:00:37.994Z,2.20
2018-02-08T15:03:05.503Z,2.20
2018-02-08T15:05:33.037Z,2.10
2018-02-08T15:08:00.761Z,2.00
2018-02-08T15:10:28.352Z,2.00
2018-02-08T15:12:56.098Z,2.10
2018-02-08T15:15:23.818Z,2.00
2018-02-08T15:17:52.632Z,1.90
2018-02-08T15:20:20.625Z,1.90
2018-02-08T15:22:48.392Z,2.00
2018-02-08T15:25:15.968Z,2.00
2018-02-08T15:27:43.506Z,2.00
2018-02-08T15:30:11.022Z,1.90
2018-02-08T15:32:38.568Z,1.80
2018-02-08T15:35:06.081Z,1.80
2018-02-08T15:37:33.646Z,1.80
2018-02-08T15:40:01.166Z,1.80
2018-02-08T15:42:29.544Z,1.70
2018-02-08T15:44:57.457Z,1.40
2018-02-08T15:47:25.183Z,1.10
2018-02-08T15:49:53.907Z,0.60
2018-02-08T15:52:21.672Z,0.50
2018-02-08T15:54:49.336Z,0.40
2018-02-08T15:57:17.202Z,0.30
2018-02-08T15:59:44.816Z,0.20
2018-02-08T16:02:13.146Z,0.10
2018-02-08T16:04:40.671Z,0.00
2018-02-08T16:07:08.228Z,-0.20
2018-02-08T16:09:36.553Z,-0.80
2018-02-08T16:12:04.187Z,-0.90
2018-02-08T16:14:31.904Z,-1.10
2018-02-08T16:16:59.474Z,-1.20
2018-02-08T16:19:27.156Z,-1.30
2018-02-08T16:21:55.624Z,-1.80
2018-02-08T16:24:23.639Z,-1.80
2018-02-08T16:26:51.941Z,-2.00
2018-02-08T16:29:20.803Z,-2.20
2018-02-08T16:31:48.472Z,-2.30
2018-02-08T16:34:16.236Z,-2.40
2018-02-08T16:36:43.829Z,-2.60
2018-02-08T16:39:11.617Z,-2.70
2018-02-08T16:41:39.324Z,-2.90
2018-02-08T16:44:06.856Z,-3.10
2018-02-08T16:46:35.161Z,-3.20
2018-02-08T16:49:02.692Z,-3.20
2018-02-08T16:51:30.213Z,-3.40
2018-02-08T16:53:58.251Z,-3.40
2018-02-08T16:56:25.860Z,-3.50
2018-02-08T16:58:53.895Z,-3.60
2018-02-08T17:01:22.280Z,-3.60
2018-02-08T17:03:51.071Z,-3.70
2018-02-08T17:06:19.032Z,-3.70
2018-02-08T17:08:47.689Z,-3.80
2018-02-08T17:11:15.359Z,-3.80
2018-02-08T17:13:42.895Z,-3.70
2018-02-08T17:16:12.125Z,-3.60
2018-02-08T17:18:39.670Z,-3.60
2018-02-08T17:21:07.350Z,-3.60
2018-02-08T17:23:34.875Z,-3.70
2018-02-08T17:26:03.190Z,-3.80
2018-02-08T17:28:30.727Z,-3.80
2018-02-08T17:30:58.544Z,-3.80
2018-02-08T17:33:26.413Z,-3.90
2018-02-08T17:35:55.047Z,-3.90
2018-02-08T17:38:23.240Z,-4.00
2018-02-08T17:40:51.721Z,-3.80
2018-02-08T17:43:20.461Z,-3.90
2018-02-08T17:45:48.830Z,-3.90
2018-02-08T17:48:16.518Z,-3.90
2018-02-08T17:50:45.356Z,-3.90
2018-02-08T17:53:13.936Z,-3.90
2018-02-08T17:55:41.637Z,-3.90
2018-02-08T17:58:09.469Z,-4.00
2018-02-08T18:00:37.202Z,-4.00
2018-02-08T18:03:04.769Z,-4.00
2018-02-08T18:05:32.317Z,-4.10
2018-02-08T18:07:59.845Z,-4.00
2018-02-08T18:10:27.509Z,-4.00
2018-02-08T18:12:56.182Z,-3.70
2018-02-08T18:15:24.834Z,-3.50
2018-02-08T18:17:53.248Z,-3.50
2018-02-08T18:20:21.888Z,-3.60
2018-02-08T18:22:49.696Z,-3.60
2018-02-08T18:25:17.227Z,-3.40
2018-02-08T18:27:44.944Z,-3.30
2018-02-08T18:30:12.506Z,-3.40
2018-02-08T18:32:41.748Z,-3.40
2018-02-08T18:35:09.357Z,-3.40
2018-02-08T18:37:37.772Z,-3.30
2018-02-08T18:40:05.460Z,-3.30
2018-02-08T18:42:33.030Z,-3.30
2018-02-08T18:45:01.621Z,-3.30
2018-02-08T18:47:29.390Z,-3.30
2018-02-08T18:49:57.132Z,-3.20
2018-02-08T18:52:25.506Z,-3.10
2018-02-08T18:54:54.634Z,-3.00
2018-02-08T18:57:23.128Z,-3.00
2018-02-08T18:59:50.972Z,-2.90
2018-02-08T19:02:20.688Z,-2.80
2018-02-08T19:04:48.848Z,-2.90
2018-02-08T19:07:16.521Z,-2.90
2018-02-08T19:09:44.176Z,-2.90
2018-02-08T19:12:11.860Z,-2.90
2018-02-08T19:14:40.301Z,-3.10
2018-02-08T19:17:08.204Z,-3.10
2018-02-08T19:19:35.741Z,-3.20
2018-02-08T19:22:03.279Z,-3.40
2018-02-08T19:24:31.058Z,-3.40
2018-02-08T19:26:58.782Z,-3.40
2018-02-08T19:29:27.511Z,-3.30
2018-02-08T19:31:55.173Z,-3.30
2018-02-08T19:34:23.720Z,-3.20
2018-02-08T19:36:52.340Z,-3.20
2018-02-08T19:39:20.976Z,-3.30
2018-02-08T19:41:49.624Z,-3.30
2018-02-08T19:44:17.273Z,-3.30
2018-02-08T19:46:44.798Z,-3.20
2018-02-08T19:49:13.146Z,-3.30
2018-02-08T19:51:40.694Z,-3.30
2018-02-08T19:54:08.262Z,-3.20
2018-02-08T19:56:35.799Z,-3.20
2018-02-08T19:59:03.337Z,-3.20
2018-02-08T20:01:30.891Z,-3.20
2018-02-08T20:03:58.442Z,-3.20
2018-02-08T20:06:26.633Z,-3.20
2018-02-08T20:08:54.229Z,-3.30
2018-02-08T20:11:22.273Z,-3.40
2018-02-08T20:13:50.041Z,-3.50
2018-02-08T20:16:17.703Z,-3.50
2018-02-08T20:18:45.244Z,-3.50
2018-02-08T20:21:12.805Z,-3.40
2018-02-08T20:23:40.487Z,-3.40
2018-02-08T20:26:08.016Z,-3.30
2018-02-08T20:28:36.312Z,-3.30
2018-02-08T20:31:09.425Z,-3.30
2018-02-08T20:33:36.956Z,-3.30
2018-02-08T20:36:04.537Z,-3.20
2018-02-08T20:38:32.077Z,-3.30
2018-02-08T20:40:59.650Z,-3.20
2018-02-08T20:43:31.976Z,-3.20
2018-02-08T20:45:59.569Z,-3.30
2018-02-08T20:48:27.260Z,-3.30
2018-02-08T20:50:54.795Z,-3.20
2018-02-08T20:53:23.142Z,-3.30
2018-02-08T20:55:51.460Z,-3.20
2018-02-08T20:58:19.009Z,-3.20
2018-02-08T21:00:46.905Z,-3.20
2018-02-08T21:03:14.761Z,-3.20
2018-02-08T21:05:42.492Z,-3.20
2018-02-08T21:08:10.858Z,-3.30
2018-02-08T21:10:39.373Z,-3.30
2018-02-08T21:13:07.767Z,-3.30
2018-02-08T21:15:35.422Z,-3.40
2018-02-08T21:18:03.808Z,-3.40
2018-02-08T21:20:31.993Z,-3.40
2018-02-08T21:23:00.464Z,-3.40
2018-02-08T21:25:28.040Z,-3.40
2018-02-08T21:27:55.790Z,-3.40
2018-02-08T21:30:23.349Z,-3.40
2018-02-08T21:32:50.911Z,-3.30
2018-02-08T21:35:18.485Z,-3.40
2018-02-08T21:37:46.344Z,-3.40
2018-02-08T21:40:13.885Z,-3.40
2018-02-08T21:42:41.436Z,-3.40
2018-02-08T21:45:09.431Z,-3.40
2018-02-08T21:47:37.497Z,-3.30
2018-02-08T21:50:05.774Z,-3.40
2018-02-08T21:52:33.743Z,-3.50
2018-02-08T21:55:01.509Z,-3.60
2018-02-08T21:57:29.136Z,-3.70
2018-02-08T21:59:57.755Z,-3.60
2018-02-08T22:02:25.936Z,-3.60
2018-02-08T22:04:53.514Z,-3.60
2018-02-08T22:07:21.053Z,-3.50
2018-02-08T22:09:48.597Z,-3.40
2018-02-08T22:12:16.715Z,-3.40
2018-02-08T22:14:44.360Z,-3.40
2018-02-08T22:17:12.244Z,-3.50
2018-02-08T22:19:40.396Z,-3.50
2018-02-08T22:22:08.155Z,-3.50
2018-02-08T22:24:35.759Z,-3.50
2018-02-08T22:27:04.924Z,-3.70
2018-02-08T22:29:34.106Z,-3.60
2018-02-08T22:32:04.148Z,-3.60
2018-02-08T22:34:33.444Z,-3.60
2018-02-08T22:37:01.168Z,-3.60
2018-02-08T22:39:29.011Z,-3.60
2018-02-08T22:41:56.585Z,-3.50
2018-02-08T22:44:24.406Z,-3.50
2018-02-08T22:46:52.758Z,-3.30
2018-02-08T22:49:20.285Z,-3.30
2018-02-08T22:51:48.604Z,-3.40
2018-02-08T22:54:16.172Z,-3.40
2018-02-08T22:56:43.688Z,-3.30
2018-02-08T22:59:12.305Z,-3.50
2018-02-08T23:01:40.836Z,-3.60
2018-02-08T23:04:10.005Z,-3.70
2018-02-08T23:06:38.037Z,-3.70
2018-02-08T23:09:06.027Z,-3.70
2018-02-08T23:11:33.996Z,-3.70
2018-02-08T23:14:02.304Z,-3.70
2018-02-08T23:16:29.940Z,-3.80
2018-02-08T23:18:57.988Z,-3.80
2018-02-08T23:21:25.671Z,-3.80
2018-02-08T23:23:54.156Z,-3.80
2018-02-08T23:26:21.720Z,-3.90
2018-02-08T23:28:49.276Z,-3.90
2018-02-08T23:31:16.795Z,-4.00
2018-02-08T23:33:45.108Z,-4.00
2018-02-08T23:36:12.639Z,-4.00
2018-02-08T23:38:41.133Z,-3.90
2018-02-08T23:41:09.218Z,-3.90
2018-02-08T23:43:38.012Z,-3.80
2018-02-08T23:46:06.197Z,-3.80
2018-02-08T23:48:34.973Z,-3.80
2018-02-08T23:51:04.072Z,-3.80
2018-02-08T23:53:33.378Z,-3.90
2018-02-08T23:56:02.365Z,-3.80
2018-02-08T23:58:30.131Z,-3.80
